Sandy River Plt, Maine
Current Conditions -  °F | °C
As of 7:52 AM on Sunday 21 Dec 2014 (Local Time) from KBML Reporting Station
Haze Haze  
Wind Chill: 11°   Ceiling: 300
Heat Index: 11°   Visibility: 5mi
Dew Point:   Wind: 0mph
Humidity: 84%   Direction: NA
Pressure: 30.3"   Gusts: NA
Location:  44.9631°N, 70.6504°W
Report Text: KBML 211252Z AUTO 00000KT 5SM BR OVC003 M12/M14 A3030 RMK AO2 SLP290 T11171139
Loading
Personal Weather Stations






























Interactive Weather Map New forecast layout! Learn more

10-Day Weather Forecast

Advertisements
Track Severe Weather on mobile